Briggs, TX (78608)

10:53 AM CDT on August 27, 2016 (GMT -0500)
Chapin Ranch | | Change Station

Elev 1043 ft 30.96 °N, 98.01 °W | Updated 2 minutes ago

Clear
Clear
83.2 °F
Feels Like 91 °F
N
4.0
Wind Variable Wind from SW
Gusts 4.0 mph

Today
High -- | Low -- °F
--% Chance of Precip.
Yesterday
High -- | Low -- °F
Precip. -- in
Pressure 30.01 in
Visibility 10.0 miles
Clouds Clear
Heat Index 91 °F
Dew Point 76 °F
Humidity 78%
Rainfall 0.00 in
Snow Depth Not available.
7:05 AM 8:00 PM
Waning Crescent, 23% visible
METAR KGRK 271458Z AUTO 00000KT 10SM CLR 26/23 A3004 RMK AO2 SLP163 T02620227 52008
Pressure 30.01 in
Visibility 10.0 miles
Clouds Clear
Heat Index 91 °F
Dew Point 76 °F
Humidity 78%
Rainfall 0.00 in
Snow Depth Not available.
7:05 AM 8:00 PM
Waning Crescent, 23% visible
METAR KGRK 271458Z AUTO 00000KT 10SM CLR 26/23 A3004 RMK AO2 SLP163 T02620227 52008

10-Day Weather Forecast

Almanac

Astronomy

Aug. 27, 2016 Rise Set
Actual Time
Civil Twilight
Nautical Twilight
Astronomical Twilight
Moon
Length of Visible Light
Length of Day
Tomorrow will be .
, % of the Moon is Illuminated

Today's Extremes

State Highs State Lows

Community

WunderPhotos

Upload Photos

1,935,358 photos uploaded!

WunderBlog® & News

Nearby

Air Quality

  Air Quality AQ Index Pollutant
Not available.

Snow Depth

Station Depth Elevation

Earthquake Activity

City Distance Mag. Time & Date
Minimum magnitude displayed is 2.5.

Coastal Water Temperatures

Place Temperature

Stations

Nearby Weather Stations

Station Location Temp. Windchill Dew Point Humidity Wind Precip. Elev Updated Type
                   

Watches & Warnings

There are currently no watches in effect.